createdAt,value
2022-10-09T00:01:28.243Z,3.60
2022-10-09T00:07:31.121Z,3.55
2022-10-09T00:10:32.864Z,3.65
2022-10-09T00:13:34.526Z,3.20
2022-10-09T00:16:36.192Z,3.47
2022-10-09T00:19:37.717Z,3.20
2022-10-09T00:22:39.361Z,2.65
2022-10-09T00:25:59.876Z,2.92
2022-10-09T00:29:01.740Z,3.53
2022-10-09T00:32:03.226Z,3.03
2022-10-09T00:35:05.093Z,2.92
2022-10-09T00:38:07.169Z,3.17
2022-10-09T00:41:10.624Z,3.42
2022-10-09T00:44:49.364Z,2.45
2022-10-09T00:47:54.360Z,3.03
2022-10-09T00:50:59.975Z,3.38
2022-10-09T00:54:04.885Z,2.83
2022-10-09T00:57:07.625Z,3.20
2022-10-09T01:00:11.791Z,3.00
2022-10-09T01:03:13.307Z,2.92
2022-10-09T01:06:26.424Z,3.38
2022-10-09T01:09:51.370Z,3.53
2022-10-09T01:13:35.888Z,3.53
2022-10-09T01:16:46.005Z,2.80
2022-10-09T01:20:10.084Z,3.42
2022-10-09T01:23:47.129Z,3.17
2022-10-09T01:27:14.478Z,3.13
2022-10-09T01:30:16.332Z,3.30
2022-10-09T01:33:18.458Z,3.03
2022-10-09T01:36:21.375Z,3.28
2022-10-09T01:39:24.089Z,3.40
2022-10-09T01:42:28.871Z,3.20
2022-10-09T01:45:41.672Z,3.85
2022-10-09T01:48:45.493Z,4.10
2022-10-09T01:51:56.804Z,3.50
2022-10-09T01:55:17.023Z,4.50
2022-10-09T01:58:36.233Z,3.85
2022-10-09T02:01:39.645Z,3.72
2022-10-09T02:04:43.484Z,3.83
2022-10-09T02:07:45.483Z,3.95
2022-10-09T02:10:48.921Z,3.47
2022-10-09T02:13:53.000Z,3.70
2022-10-09T02:17:03.500Z,3.42
2022-10-09T02:20:31.093Z,3.70
2022-10-09T02:23:34.950Z,3.63
2022-10-09T02:26:37.747Z,3.90
2022-10-09T02:29:45.051Z,3.72
2022-10-09T02:32:52.365Z,3.63
2022-10-09T02:35:54.181Z,3.67
2022-10-09T02:38:57.039Z,3.55
2022-10-09T02:41:58.605Z,3.25
2022-10-09T02:45:00.519Z,3.67
2022-10-09T02:48:02.020Z,3.92
2022-10-09T02:51:03.577Z,4.28
2022-10-09T02:54:05.817Z,3.60
2022-10-09T02:57:07.269Z,3.80
2022-10-09T03:00:09.431Z,3.50
2022-10-09T03:03:10.906Z,3.88
2022-10-09T03:06:24.807Z,4.53
2022-10-09T03:09:29.215Z,3.83
2022-10-09T03:12:34.356Z,4.05
2022-10-09T03:15:37.077Z,4.32
2022-10-09T03:18:39.055Z,4.20
2022-10-09T03:21:40.626Z,4.47
2022-10-09T03:24:42.091Z,3.45
2022-10-09T03:27:43.632Z,3.78
2022-10-09T03:30:45.057Z,3.58
2022-10-09T03:33:46.540Z,4.25
2022-10-09T03:36:48.119Z,3.97
2022-10-09T03:39:49.569Z,4.05
2022-10-09T03:42:51.464Z,3.60
2022-10-09T03:45:53.119Z,4.05
2022-10-09T03:48:54.680Z,4.22
2022-10-09T03:51:56.104Z,4.00
2022-10-09T03:54:57.621Z,4.10
2022-10-09T03:57:59.631Z,3.78
2022-10-09T04:01:01.256Z,4.40
2022-10-09T04:04:02.959Z,3.80
2022-10-09T04:07:04.565Z,4.00
2022-10-09T04:10:06.688Z,4.65
2022-10-09T04:13:08.443Z,3.60
2022-10-09T04:16:12.682Z,4.13
2022-10-09T04:19:14.318Z,3.83
2022-10-09T04:22:15.837Z,4.20
2022-10-09T04:25:17.328Z,3.92
2022-10-09T04:28:18.848Z,4.10
2022-10-09T04:31:20.492Z,4.63
2022-10-09T04:34:21.987Z,5.13
2022-10-09T04:37:23.420Z,4.55
2022-10-09T04:40:24.896Z,5.32
2022-10-09T04:43:27.386Z,4.97
2022-10-09T04:46:28.890Z,5.45
2022-10-09T04:49:30.347Z,4.97
2022-10-09T04:52:31.788Z,4.90
2022-10-09T04:55:33.255Z,4.40
2022-10-09T04:58:36.533Z,4.15
2022-10-09T05:01:38.694Z,4.25
2022-10-09T05:04:40.496Z,4.35
2022-10-09T05:07:41.918Z,4.63
2022-10-09T05:10:43.418Z,4.50
2022-10-09T05:13:48.516Z,4.55
2022-10-09T05:17:12.359Z,4.97
2022-10-09T05:20:13.460Z,4.50
2022-10-09T05:23:14.884Z,5.03
2022-10-09T05:26:18.786Z,5.03
2022-10-09T05:29:20.478Z,4.80
2022-10-09T05:32:21.936Z,4.50
2022-10-09T05:35:23.372Z,4.35
2022-10-09T05:38:25.747Z,4.85
2022-10-09T05:41:29.454Z,4.13
2022-10-09T05:44:30.911Z,4.53
2022-10-09T05:47:32.462Z,4.80
2022-10-09T05:50:33.937Z,4.70
2022-10-09T05:53:35.730Z,4.45
2022-10-09T05:56:38.977Z,5.22
2022-10-09T05:59:40.478Z,5.30
2022-10-09T06:02:41.948Z,5.32
2022-10-09T06:05:43.400Z,4.72
2022-10-09T06:08:45.205Z,4.90
2022-10-09T06:11:46.708Z,5.38
2022-10-09T06:14:48.170Z,4.88
2022-10-09T06:17:49.584Z,5.30
2022-10-09T06:20:59.512Z,4.68
2022-10-09T06:24:03.817Z,4.72
2022-10-09T06:27:05.338Z,4.70
2022-10-09T06:30:07.392Z,4.95
2022-10-09T06:33:08.827Z,4.65
2022-10-09T06:36:19.296Z,4.90
2022-10-09T06:39:20.888Z,4.60
2022-10-09T06:42:22.461Z,4.75
2022-10-09T06:45:37.633Z,5.50
2022-10-09T06:48:40.376Z,5.80
2022-10-09T06:51:41.929Z,5.03
2022-10-09T06:54:43.364Z,4.65
2022-10-09T06:57:44.856Z,4.93
2022-10-09T07:00:48.433Z,4.45
2022-10-09T07:03:56.178Z,5.53
2022-10-09T07:06:57.668Z,5.50
2022-10-09T07:09:59.124Z,5.18
2022-10-09T07:13:00.591Z,5.53
2022-10-09T07:16:04.836Z,5.40
2022-10-09T07:19:08.395Z,5.32
2022-10-09T07:22:11.441Z,5.33
2022-10-09T07:25:13.019Z,5.00
2022-10-09T07:28:14.594Z,4.60
2022-10-09T07:31:16.785Z,5.20
2022-10-09T07:34:18.272Z,4.60
2022-10-09T07:37:19.758Z,5.00
2022-10-09T07:40:21.343Z,5.07
2022-10-09T07:43:22.899Z,4.70
2022-10-09T07:46:29.581Z,5.15
2022-10-09T07:49:33.869Z,4.70
2022-10-09T07:52:35.300Z,4.63
2022-10-09T07:55:36.860Z,4.05
2022-10-09T07:58:38.372Z,4.43
2022-10-09T08:01:40.525Z,5.22
2022-10-09T08:04:41.993Z,4.72
2022-10-09T08:07:43.471Z,4.60
2022-10-09T08:10:45.103Z,3.90
2022-10-09T08:13:47.850Z,3.70
2022-10-09T08:16:49.472Z,4.47
2022-10-09T08:19:50.952Z,4.40
2022-10-09T08:22:52.666Z,4.32
2022-10-09T08:25:54.691Z,4.88
2022-10-09T08:28:59.419Z,4.53
2022-10-09T08:32:00.904Z,6.47
2022-10-09T08:35:02.352Z,8.25
2022-10-09T08:38:03.860Z,8.18
2022-10-09T08:41:27.817Z,7.78
2022-10-09T08:44:39.096Z,9.32
2022-10-09T08:47:46.285Z,9.40
2022-10-09T08:50:51.272Z,9.98
2022-10-09T08:54:10.812Z,9.35
2022-10-09T08:57:17.306Z,9.35
2022-10-09T09:00:21.418Z,10.25
2022-10-09T09:11:42.800Z,10.60
2022-10-09T09:14:51.172Z,10.85
2022-10-09T09:18:37.671Z,11.85
2022-10-09T09:21:51.063Z,11.65
2022-10-09T09:24:57.800Z,11.50
2022-10-09T09:28:12.517Z,11.35
2022-10-09T09:31:31.289Z,11.30
2022-10-09T09:34:39.712Z,10.98
2022-10-09T09:37:41.385Z,12.93
2022-10-09T09:40:47.271Z,13.05
2022-10-09T09:43:49.012Z,12.40
2022-10-09T09:46:50.649Z,12.15
2022-10-09T09:49:58.791Z,12.38
2022-10-09T09:53:24.077Z,12.65
2022-10-09T10:00:16.721Z,12.40
2022-10-09T10:03:18.313Z,11.20
2022-10-09T10:06:25.712Z,11.35
2022-10-09T10:09:28.451Z,11.43
2022-10-09T10:12:31.625Z,10.93
2022-10-09T10:15:34.701Z,10.87
2022-10-09T10:18:41.904Z,12.20
2022-10-09T10:21:56.580Z,10.48
2022-10-09T10:24:59.590Z,11.43
2022-10-09T10:28:08.361Z,10.65
2022-10-09T10:31:29.482Z,10.25
2022-10-09T10:34:37.804Z,10.52
2022-10-09T10:37:58.087Z,10.43
2022-10-09T10:41:08.653Z,9.80
2022-10-09T10:44:22.986Z,10.18
2022-10-09T10:50:36.314Z,9.43
2022-10-09T10:54:03.051Z,9.68
2022-10-09T10:57:30.627Z,8.93
2022-10-09T11:00:38.714Z,8.55
2022-10-09T11:03:56.904Z,8.98
2022-10-09T11:07:33.615Z,9.85
2022-10-09T11:10:38.101Z,8.15
2022-10-09T11:14:07.756Z,8.27
2022-10-09T11:17:30.935Z,6.90
2022-10-09T11:20:44.592Z,7.18
2022-10-09T11:24:14.684Z,7.05
2022-10-09T11:27:20.885Z,7.10
2022-10-09T11:30:22.550Z,6.97
2022-10-09T11:33:27.000Z,6.97
2022-10-09T11:36:44.529Z,6.72
2022-10-09T11:39:46.326Z,7.07
2022-10-09T11:42:56.755Z,6.70
2022-10-09T11:46:07.458Z,6.00
2022-10-09T11:49:27.858Z,6.10
2022-10-09T11:52:48.900Z,5.95
2022-10-09T11:56:05.857Z,5.82
2022-10-09T11:59:07.897Z,6.13
2022-10-09T12:02:26.418Z,6.95
2022-10-09T12:05:36.344Z,7.22
2022-10-09T12:08:43.682Z,5.82
2022-10-09T12:11:55.480Z,6.63
2022-10-09T12:14:57.245Z,6.75
2022-10-09T12:17:58.782Z,6.30
2022-10-09T12:21:04.550Z,6.07
2022-10-09T12:24:13.251Z,6.07
2022-10-09T12:27:24.880Z,6.43
2022-10-09T12:30:36.950Z,6.20
2022-10-09T12:33:43.859Z,6.20
2022-10-09T12:36:45.357Z,6.05
2022-10-09T12:39:49.750Z,6.60
2022-10-09T12:42:53.501Z,6.05
2022-10-09T12:45:55.432Z,6.10
2022-10-09T12:48:58.290Z,6.85
2022-10-09T12:52:01.052Z,6.10
2022-10-09T12:55:02.657Z,5.82
2022-10-09T12:58:14.436Z,5.50
2022-10-09T13:01:17.096Z,5.25
2022-10-09T13:04:31.530Z,5.80
2022-10-09T13:10:34.556Z,5.82
2022-10-09T13:13:36.188Z,5.60
2022-10-09T13:16:43.613Z,5.75
2022-10-09T13:19:52.297Z,5.45
2022-10-09T13:22:56.511Z,5.93
2022-10-09T13:26:03.181Z,5.65
2022-10-09T13:29:06.442Z,5.78
2022-10-09T13:32:12.142Z,4.97
2022-10-09T13:35:13.977Z,5.22
2022-10-09T13:38:17.402Z,5.35
2022-10-09T13:41:24.707Z,5.68
2022-10-09T13:44:26.272Z,5.20
2022-10-09T13:47:27.753Z,4.85
2022-10-09T13:50:35.788Z,5.10
2022-10-09T13:53:37.387Z,4.65
2022-10-09T13:56:38.877Z,5.07
2022-10-09T13:59:40.348Z,4.85
2022-10-09T14:02:41.998Z,4.53
2022-10-09T14:05:44.529Z,4.72
2022-10-09T14:08:45.989Z,5.22
2022-10-09T14:11:47.465Z,5.15
2022-10-09T14:14:48.940Z,4.60
2022-10-09T14:17:50.770Z,4.32
2022-10-09T14:20:52.536Z,4.70
2022-10-09T14:23:55.301Z,4.40
2022-10-09T14:26:56.775Z,4.57
2022-10-09T14:29:58.283Z,4.65
2022-10-09T14:33:02.722Z,4.68
2022-10-09T14:36:13.844Z,4.53
2022-10-09T14:39:16.181Z,3.92
2022-10-09T14:42:17.648Z,5.28
2022-10-09T14:45:19.197Z,5.10
2022-10-09T14:48:20.675Z,4.75
2022-10-09T14:51:26.518Z,4.20
2022-10-09T14:54:27.992Z,4.20
2022-10-09T14:57:34.378Z,4.60
2022-10-09T15:00:36.806Z,4.15
2022-10-09T15:03:38.406Z,4.47
2022-10-09T15:06:39.947Z,4.15
2022-10-09T15:09:41.483Z,4.15
2022-10-09T15:12:42.953Z,4.15
2022-10-09T15:15:44.483Z,4.60
2022-10-09T15:18:48.315Z,4.65
2022-10-09T15:21:49.812Z,3.95
2022-10-09T15:24:51.336Z,4.40
2022-10-09T15:27:55.431Z,4.32
2022-10-09T15:31:00.613Z,4.25
2022-10-09T15:34:02.734Z,4.22
2022-10-09T15:37:04.341Z,4.10
2022-10-09T15:40:06.307Z,4.28
2022-10-09T15:43:08.898Z,4.18
2022-10-09T15:46:10.890Z,4.28
2022-10-09T15:49:15.135Z,4.65
2022-10-09T15:52:16.772Z,5.03
2022-10-09T15:55:18.299Z,4.35
2022-10-09T15:58:20.367Z,4.47
2022-10-09T16:01:25.807Z,4.50
2022-10-09T16:04:28.080Z,3.90
2022-10-09T16:07:29.989Z,4.35
2022-10-09T16:10:31.833Z,4.57
2022-10-09T16:13:37.869Z,4.47
2022-10-09T16:16:41.733Z,4.72
2022-10-09T16:19:43.216Z,4.65
2022-10-09T16:22:44.756Z,4.88
2022-10-09T16:25:57.000Z,4.55
2022-10-09T16:29:00.444Z,4.90
2022-10-09T16:32:01.956Z,5.10
2022-10-09T16:35:03.588Z,4.15
2022-10-09T16:38:06.712Z,4.80
2022-10-09T16:41:17.894Z,5.35
2022-10-09T16:44:19.622Z,5.03
2022-10-09T16:47:21.575Z,4.78
2022-10-09T16:50:23.165Z,6.18
2022-10-09T16:53:27.323Z,5.07
2022-10-09T16:56:41.019Z,6.63
2022-10-09T16:59:46.263Z,16.65
2022-10-09T17:02:47.789Z,11.88
2022-10-09T17:05:49.311Z,9.52
2022-10-09T17:08:52.676Z,8.27
2022-10-09T17:11:54.368Z,6.57
2022-10-09T17:14:55.878Z,7.10
2022-10-09T17:17:57.316Z,11.73
2022-10-09T17:21:02.940Z,11.50
2022-10-09T17:24:05.754Z,5.07
2022-10-09T17:27:09.809Z,18.25
2022-10-09T17:33:18.875Z,25.40
2022-10-09T17:36:23.351Z,20.52
2022-10-09T17:39:24.994Z,15.90
2022-10-09T17:42:26.562Z,12.63
2022-10-09T17:45:28.043Z,11.55
2022-10-09T17:48:29.760Z,9.52
2022-10-09T17:51:33.919Z,9.25
2022-10-09T17:54:35.630Z,9.45
2022-10-09T17:58:02.369Z,9.30
2022-10-09T18:01:06.019Z,8.95
2022-10-09T18:04:07.757Z,8.27
2022-10-09T18:07:09.235Z,8.30
2022-10-09T18:10:10.971Z,7.88
2022-10-09T18:13:12.436Z,8.57
2022-10-09T18:16:17.045Z,7.75
2022-10-09T18:19:18.919Z,8.13
2022-10-09T18:22:23.336Z,7.28
2022-10-09T18:25:24.772Z,8.82
2022-10-09T18:31:34.510Z,9.05
2022-10-09T18:34:46.382Z,9.02
2022-10-09T18:38:09.824Z,9.93
2022-10-09T18:41:13.441Z,8.82
2022-10-09T18:44:19.760Z,10.07
2022-10-09T18:47:28.441Z,10.10
2022-10-09T18:50:38.970Z,10.43
2022-10-09T18:53:43.787Z,12.18
2022-10-09T18:56:46.424Z,12.73
2022-10-09T18:59:48.710Z,15.02
2022-10-09T19:02:51.703Z,12.32
2022-10-09T19:05:53.249Z,12.65
2022-10-09T19:09:10.320Z,10.00
2022-10-09T19:12:18.443Z,11.40
2022-10-09T19:15:24.332Z,11.68
2022-10-09T19:18:26.974Z,8.63
2022-10-09T19:21:28.476Z,7.82
2022-10-09T19:24:34.397Z,7.70
2022-10-09T19:27:36.143Z,6.88
2022-10-09T19:31:13.609Z,7.10
2022-10-09T19:34:15.766Z,6.50
2022-10-09T19:37:17.617Z,6.85
2022-10-09T19:40:41.683Z,7.25
2022-10-09T19:43:50.359Z,7.63
2022-10-09T19:46:57.419Z,6.80
2022-10-09T19:50:08.836Z,7.35
2022-10-09T19:53:16.757Z,6.85
2022-10-09T19:56:33.403Z,7.07
2022-10-09T19:59:40.547Z,7.45
2022-10-09T20:02:42.031Z,6.50
2022-10-09T20:05:43.592Z,7.03
2022-10-09T20:08:45.224Z,6.78
2022-10-09T20:11:46.924Z,7.93
2022-10-09T20:14:48.681Z,7.43
2022-10-09T20:17:50.140Z,6.72
2022-10-09T20:20:51.622Z,6.93
2022-10-09T20:23:55.780Z,7.50
2022-10-09T20:29:58.726Z,7.60
2022-10-09T20:33:00.901Z,6.72
2022-10-09T20:36:03.838Z,7.70
2022-10-09T20:39:08.898Z,7.90
2022-10-09T20:42:10.547Z,7.32
2022-10-09T20:45:12.039Z,8.02
2022-10-09T20:48:13.575Z,7.32
2022-10-09T20:51:15.498Z,6.70
2022-10-09T20:54:19.388Z,6.75
2022-10-09T20:57:20.929Z,5.93
2022-10-09T21:00:23.680Z,6.78
2022-10-09T21:03:25.609Z,6.05
2022-10-09T21:06:29.484Z,6.85
2022-10-09T21:09:33.386Z,15.82
2022-10-09T21:12:35.273Z,23.95
2022-10-09T21:15:47.592Z,21.70
2022-10-09T21:18:57.493Z,15.07
2022-10-09T21:21:58.968Z,13.10
2022-10-09T21:25:00.525Z,11.55
2022-10-09T21:28:02.184Z,9.90
2022-10-09T21:31:08.454Z,23.50
2022-10-09T21:34:09.956Z,20.88
2022-10-09T21:37:21.552Z,11.63
2022-10-09T21:40:23.798Z,6.75
2022-10-09T21:43:25.281Z,6.60
2022-10-09T21:46:27.313Z,6.43
2022-10-09T21:49:29.508Z,6.53
2022-10-09T21:52:31.101Z,6.68
2022-10-09T21:55:32.650Z,7.47
2022-10-09T21:58:34.156Z,6.70
2022-10-09T22:01:36.060Z,7.25
2022-10-09T22:04:37.628Z,7.45
2022-10-09T22:07:39.203Z,7.22
2022-10-09T22:10:43.491Z,10.23
2022-10-09T22:13:44.972Z,13.63
2022-10-09T22:16:46.515Z,11.35
2022-10-09T22:19:48.100Z,8.18
2022-10-09T22:22:49.819Z,7.43
2022-10-09T22:26:00.969Z,6.43
2022-10-09T22:29:02.475Z,5.75
2022-10-09T22:32:04.111Z,6.28
2022-10-09T22:35:06.011Z,6.50
2022-10-09T22:38:07.451Z,7.85
2022-10-09T22:41:17.276Z,6.60
2022-10-09T22:44:18.853Z,5.97
2022-10-09T22:47:20.311Z,8.80
2022-10-09T22:50:21.852Z,9.60
2022-10-09T22:53:23.454Z,10.30
2022-10-09T22:56:28.218Z,7.97
2022-10-09T22:59:29.690Z,9.43
2022-10-09T23:02:31.191Z,8.85
2022-10-09T23:05:32.679Z,9.07
2022-10-09T23:08:34.272Z,7.57
2022-10-09T23:11:35.804Z,6.97
2022-10-09T23:14:37.265Z,6.40
2022-10-09T23:17:38.795Z,6.38
2022-10-09T23:20:40.260Z,6.75
2022-10-09T23:23:42.702Z,6.22
2022-10-09T23:26:46.118Z,6.38
2022-10-09T23:29:47.627Z,6.10
2022-10-09T23:32:52.399Z,6.47
2022-10-09T23:35:54.158Z,5.90
2022-10-09T23:38:56.991Z,6.80
2022-10-09T23:41:58.463Z,6.20
2022-10-09T23:44:59.904Z,6.00
2022-10-09T23:48:01.379Z,6.03
2022-10-09T23:51:05.042Z,5.90
2022-10-09T23:54:07.136Z,5.95
2022-10-09T23:57:08.593Z,6.22
